Time;durP1;ratioP1;P1;durP2;ratioP2;P2;SDS_P1;SDS_P2;PMS_P1;PMS_P2;Temp;Humidity;BMP_temperature;BMP_pressure;BME280_temperature;BME280_humidity;BME280_pressure;Samples;Min_cycle;Max_cycle;Signal;HPM_P1;HPM_P2
2023/10/16 00:02:12;;;;;;;;;;;14.80;64.70;;;;;;5094010;28;19924;-72
2023/10/16 00:04:38;;;;;;;;;;;14.80;64.70;;;;;;5093912;28;19965;-72
2023/10/16 00:07:03;;;;;;;;;;;14.80;64.70;;;;;;5097596;28;20375;-72
2023/10/16 00:09:29;;;;;;;;;;;14.80;64.70;;;;;;5115998;28;19919;-72
2023/10/16 00:11:54;;;;;;;;;;;14.80;64.70;;;;;;5097889;28;19927;-72
2023/10/16 00:14:23;;;;;;;;;;;14.80;64.70;;;;;;5115723;28;20185;-72
2023/10/16 00:16:50;;;;;;;;;;;14.80;64.70;;;;;;5097806;28;19974;-72
2023/10/16 00:19:16;;;;;;;;;;;14.80;64.70;;;;;;5115758;28;20313;-72
2023/10/16 00:21:45;;;;;;;;;;;14.80;64.70;;;;;;5115744;28;19920;-71
2023/10/16 00:24:11;;;;;;;;;;;14.80;64.70;;;;;;5097664;28;19919;-72
2023/10/16 00:27:00;;;;;;;;;;;14.80;64.70;;;;;;5097301;28;19927;-72
2023/10/16 00:29:32;;;;;;;;;;;14.80;64.70;;;;;;5097479;28;19924;-72
2023/10/16 00:32:07;;;;;;;;;;;14.80;64.70;;;;;;5097487;28;19942;-72
2023/10/16 00:34:32;;;;;;;;;;;14.80;64.70;;;;;;5097039;28;20060;-72
2023/10/16 00:36:58;;;;;;;;;;;14.80;64.70;;;;;;5115459;28;20364;-68
2023/10/16 00:39:28;;;;;;;;;;;14.80;64.70;;;;;;5096902;28;19924;-69
2023/10/16 00:41:57;;;;;;;;;;;14.80;64.70;;;;;;5115265;28;19944;-70
2023/10/16 00:44:23;;;;;;;;;;;14.80;64.70;;;;;;5096926;28;20010;-69
2023/10/16 00:46:49;;;;;;;;;;;14.80;64.70;;;;;;5097261;28;20004;-69
2023/10/16 00:49:18;;;;;;;;;;;14.80;64.70;;;;;;5115176;28;19981;-69
2023/10/16 00:51:45;;;;;;;;;;;14.80;65.50;;;;;;5131068;27;19927;-68
2023/10/16 00:54:19;;;;;;;;;;;14.80;64.70;;;;;;5097015;28;20287;-68
2023/10/16 00:56:47;;;;;;;;;;;14.80;64.70;;;;;;5096737;28;19926;-68
2023/10/16 00:59:16;;;;;;;;;;;14.80;64.80;;;;;;5096352;28;19934;-68
2023/10/16 01:01:43;;;;;;;;;;;14.80;64.70;;;;;;5096644;28;20120;-68
2023/10/16 01:04:09;;;;;;;;;;;14.80;64.70;;;;;;5096766;28;19968;-69
2023/10/16 01:06:38;;;;;;;;;;;14.80;64.60;;;;;;5096849;28;19926;-70
2023/10/16 01:09:08;;;;;;;;;;;14.90;64.70;;;;;;5096429;28;19926;-69
2023/10/16 01:11:37;;;;;;;;;;;14.80;64.70;;;;;;5096694;28;19970;-69
2023/10/16 01:14:03;;;;;;;;;;;14.80;64.70;;;;;;5114700;28;19923;-68
2023/10/16 01:16:29;;;;;;;;;;;14.80;64.70;;;;;;5130690;27;19926;-69
2023/10/16 01:18:57;;;;;;;;;;;14.70;64.70;;;;;;5076104;28;19924;-69
2023/10/16 01:21:23;;;;;;;;;;;14.80;64.70;;;;;;5076272;28;19924;-69
2023/10/16 01:23:51;;;;;;;;;;;14.80;64.80;;;;;;5076270;28;19977;-69
2023/10/16 01:26:16;;;;;;;;;;;14.80;64.70;;;;;;5093951;28;19963;-68
2023/10/16 01:28:42;;;;;;;;;;;14.80;64.70;;;;;;5075899;28;19963;-69
2023/10/16 01:31:07;;;;;;;;;;;14.80;64.60;;;;;;5076078;28;19920;-68
2023/10/16 01:33:33;;;;;;;;;;;14.80;64.60;;;;;;5076085;28;20011;-69
2023/10/16 01:35:59;;;;;;;;;;;14.70;64.60;;;;;;5075686;28;19920;-69
2023/10/16 01:38:24;;;;;;;;;;;14.80;64.70;;;;;;5075671;28;19931;-69
2023/10/16 01:41:22;;;;;;;;;;;14.80;64.70;;;;;;5075796;28;19920;-68
2023/10/16 01:43:37;;;;;;;;;;;14.70;64.70;;;;;;5075333;28;19927;-68
2023/10/16 01:46:08;;;;;;;;;;;14.80;64.70;;;;;;5093638;28;20307;-69
2023/10/16 01:48:34;;;;;;;;;;;14.70;64.60;;;;;;5075471;28;19927;-69
2023/10/16 01:51:01;;;;;;;;;;;14.70;64.70;;;;;;5093609;28;19920;-69
2023/10/16 01:53:32;;;;;;;;;;;14.70;64.70;;;;;;5093616;28;20394;-69
2023/10/16 01:55:58;;;;;;;;;;;14.70;64.70;;;;;;5075626;28;19955;-69
2023/10/16 01:58:24;;;;;;;;;;;14.70;64.70;;;;;;5074847;28;19967;-69
2023/10/16 02:00:51;;;;;;;;;;;14.70;64.60;;;;;;5109164;28;19920;-69
2023/10/16 02:03:17;;;;;;;;;;;14.70;64.70;;;;;;5093185;28;20023;-68
2023/10/16 02:05:45;;;;;;;;;;;14.80;64.60;;;;;;5075379;28;20015;-69
2023/10/16 02:08:12;;;;;;;;;;;14.70;64.60;;;;;;5093161;28;20011;-69
2023/10/16 02:10:38;;;;;;;;;;;14.70;64.60;;;;;;5075327;28;19920;-69
2023/10/16 02:13:03;;;;;;;;;;;14.70;64.60;;;;;;5074945;28;19969;-69
2023/10/16 02:15:29;;;;;;;;;;;14.80;64.60;;;;;;5075122;28;19920;-69
2023/10/16 02:17:55;;;;;;;;;;;14.80;64.60;;;;;;5086936;28;19988;-69
2023/10/16 02:20:26;;;;;;;;;;;14.80;64.50;;;;;;5113345;28;19972;-69
2023/10/16 02:22:53;;;;;;;;;;;14.80;64.50;;;;;;5113477;28;19923;-69
2023/10/16 02:25:18;;;;;;;;;;;14.80;64.50;;;;;;5095368;28;19947;-69
2023/10/16 02:27:44;;;;;;;;;;;14.70;64.50;;;;;;5113095;28;19958;-69
2023/10/16 02:33:14;;;;;;;;;;;14.80;64.40;;;;;;5130757;27;19916;-68
2023/10/16 02:35:42;;;;;;;;;;;14.80;64.40;;;;;;5129467;28;19927;-68
2023/10/16 02:38:12;;;;;;;;;;;14.80;64.20;;;;;;5129322;28;19976;-68
2023/10/16 02:40:39;;;;;;;;;;;14.80;64.20;;;;;;5129300;28;19924;-68
2023/10/16 02:43:13;;;;;;;;;;;14.80;64.10;;;;;;5129207;28;19927;-68
2023/10/16 02:45:42;;;;;;;;;;;14.80;64.20;;;;;;5129139;28;20379;-68
2023/10/16 02:48:09;;;;;;;;;;;14.80;64.20;;;;;;5129559;28;19923;-68
2023/10/16 02:50:35;;;;;;;;;;;14.80;64.30;;;;;;5129233;28;19982;-68
2023/10/16 02:53:01;;;;;;;;;;;14.80;64.30;;;;;;5129541;28;19920;-68
2023/10/16 02:55:27;;;;;;;;;;;14.80;64.30;;;;;;5129409;28;20331;-68
2023/10/16 02:57:52;;;;;;;;;;;14.80;64.30;;;;;;5129049;28;20446;-69
2023/10/16 03:00:25;;;;;;;;;;;14.80;64.20;;;;;;5129203;28;19968;-69
2023/10/16 03:02:51;;;;;;;;;;;14.80;64.20;;;;;;5128984;28;20362;-68
2023/10/16 03:05:25;;;;;;;;;;;14.80;64.20;;;;;;5129173;28;20006;-68
2023/10/16 03:07:51;;;;;;;;;;;14.80;64.10;;;;;;5128912;28;19927;-69
2023/10/16 03:10:17;;;;;;;;;;;14.90;64.10;;;;;;5130060;27;19959;-69
2023/10/16 03:12:43;;;;;;;;;;;14.90;64.00;;;;;;5128680;28;20411;-68
2023/10/16 03:15:16;;;;;;;;;;;14.90;64.10;;;;;;5128668;28;19920;-69
2023/10/16 03:17:41;;;;;;;;;;;14.80;64.00;;;;;;5128986;28;19943;-69
2023/10/16 03:20:38;;;;;;;;;;;14.80;64.00;;;;;;5128915;28;20387;-69
2023/10/16 03:22:53;;;;;;;;;;;14.90;64.00;;;;;;5128471;28;19959;-68
2023/10/16 03:25:50;;;;;;;;;;;14.80;63.90;;;;;;5128381;28;20013;-69
2023/10/16 03:28:05;;;;;;;;;;;14.80;63.90;;;;;;5128416;28;20378;-68
2023/10/16 03:30:31;;;;;;;;;;;14.80;64.00;;;;;;5129716;27;19970;-69
2023/10/16 03:32:58;;;;;;;;;;;14.80;64.10;;;;;;5128087;28;20429;-69
2023/10/16 03:35:29;;;;;;;;;;;14.80;64.00;;;;;;5128736;28;20295;-68
2023/10/16 03:37:55;;;;;;;;;;;14.80;64.00;;;;;;5129615;27;19920;-68
2023/10/16 03:40:24;;;;;;;;;;;14.80;64.00;;;;;;5129475;27;19919;-69
2023/10/16 03:42:49;;;;;;;;;;;14.80;64.00;;;;;;5123915;28;20268;-68
2023/10/16 03:45:16;;;;;;;;;;;14.80;63.90;;;;;;5115827;28;19942;-68
2023/10/16 03:47:42;;;;;;;;;;;14.80;63.90;;;;;;5115812;28;19926;-68
2023/10/16 03:50:08;;;;;;;;;;;14.80;64.00;;;;;;5114901;28;20010;-69
2023/10/16 03:52:35;;;;;;;;;;;14.80;64.00;;;;;;5114326;28;19928;-68
2023/10/16 03:55:32;;;;;;;;;;;14.80;63.90;;;;;;5114555;28;19955;-68
2023/10/16 03:57:47;;;;;;;;;;;14.80;63.80;;;;;;5114048;28;19919;-68
2023/10/16 04:00:14;;;;;;;;;;;14.80;63.80;;;;;;5114266;28;19943;-68
2023/10/16 04:02:41;;;;;;;;;;;14.80;63.90;;;;;;5115532;28;19927;-68
2023/10/16 04:05:27;;;;;;;;;;;14.80;63.90;;;;;;5114403;28;19920;-68
2023/10/16 04:07:52;;;;;;;;;;;14.80;64.00;;;;;;5113891;28;20014;-69
2023/10/16 04:10:28;;;;;;;;;;;14.80;64.00;;;;;;5148588;27;19966;-69
2023/10/16 04:12:54;;;;;;;;;;;14.80;64.00;;;;;;5113901;28;20367;-68
2023/10/16 04:15:59;;;;;;;;;;;14.80;64.00;;;;;;5113888;28;20060;-68
2023/10/16 04:18:05;;;;;;;;;;;14.80;64.00;;;;;;5114815;28;19920;-69
2023/10/16 04:20:47;;;;;;;;;;;14.80;64.00;;;;;;5115277;28;20007;-69
2023/10/16 04:26:35;;;;;;;;;;;14.80;64.00;;;;;;5114812;28;19924;-68
2023/10/16 04:43:19;;;;;;;;;;;14.80;64.00;;;;;;5110333;27;19934;-68
2023/10/16 04:45:39;;;;;;;;;;;14.80;64.00;;;;;;5108835;28;20019;-68
2023/10/16 04:50:49;;;;;;;;;;;14.80;63.90;;;;;;5110434;27;19912;-69
2023/10/16 04:53:21;;;;;;;;;;;14.80;63.90;;;;;;5108898;28;19920;-68
2023/10/16 04:58:38;;;;;;;;;;;14.80;63.90;;;;;;5110231;27;19934;-69
2023/10/16 05:06:49;;;;;;;;;;;14.80;63.80;;;;;;5088442;28;19952;-68
2023/10/16 05:21:19;;;;;;;;;;;14.80;63.90;;;;;;5108719;28;19920;-69
2023/10/16 06:15:31;;;;;;;;;;;14.80;65.70;;;;;;5107086;27;20434;-68
2023/10/16 06:18:04;;;;;;;;;;;14.80;65.70;;;;;;5102016;27;20367;-68
2023/10/16 06:20:31;;;;;;;;;;;14.80;65.60;;;;;;5106747;28;19966;-68
2023/10/16 06:22:58;;;;;;;;;;;14.80;65.60;;;;;;5105062;27;19923;-68
2023/10/16 06:25:28;;;;;;;;;;;15.00;65.60;;;;;;5131091;27;19924;-68
2023/10/16 06:27:54;;;;;;;;;;;15.40;65.00;;;;;;5102248;27;20425;-68
2023/10/16 06:30:22;;;;;;;;;;;15.90;63.80;;;;;;5085759;28;19946;-68
2023/10/16 06:32:49;;;;;;;;;;;16.40;62.50;;;;;;5085867;27;19928;-68
2023/10/16 06:35:16;;;;;;;;;;;16.80;61.10;;;;;;5081923;28;19923;-69
2023/10/16 06:37:51;;;;;;;;;;;17.40;60.00;;;;;;5092988;27;19923;-71
2023/10/16 06:40:18;;;;;;;;;;;17.90;58.70;;;;;;5083304;28;19931;-71
2023/10/16 06:42:47;;;;;;;;;;;18.70;57.20;;;;;;5078925;28;19919;-71
2023/10/16 06:45:19;;;;;;;;;;;19.40;55.50;;;;;;5083730;27;20070;-71
2023/10/16 06:47:48;;;;;;;;;;;20.20;53.80;;;;;;5097259;27;19977;-68
2023/10/16 06:50:35;;;;;;;;;;;20.80;52.30;;;;;;5096519;28;19924;-69
2023/10/16 06:53:00;;;;;;;;;;;21.20;50.90;;;;;;5079580;27;20283;-69
2023/10/16 06:55:26;;;;;;;;;;;21.20;50.40;;;;;;5090332;28;19923;-70
2023/10/16 06:57:51;;;;;;;;;;;21.20;50.30;;;;;;5074103;28;20495;-70
2023/10/16 07:00:25;;;;;;;;;;;21.00;50.30;;;;;;5074954;28;19954;-71
2023/10/16 07:02:54;;;;;;;;;;;20.90;50.60;;;;;;5072856;27;19926;-70
2023/10/16 07:05:52;;;;;;;;;;;20.70;51.00;;;;;;5077971;28;20363;-72
2023/10/16 07:08:08;;;;;;;;;;;20.70;51.10;;;;;;5076213;28;20115;-70
2023/10/16 07:10:33;;;;;;;;;;;20.80;51.20;;;;;;5106086;27;19928;-71
2023/10/16 07:13:00;;;;;;;;;;;20.80;51.10;;;;;;5095731;27;20335;-71
2023/10/16 07:15:29;;;;;;;;;;;20.80;51.20;;;;;;5079360;28;19959;-74
2023/10/16 07:17:56;;;;;;;;;;;20.70;51.30;;;;;;5091734;27;19947;-72
2023/10/16 07:20:29;;;;;;;;;;;20.60;51.50;;;;;;5079741;28;20364;-70
2023/10/16 07:22:59;;;;;;;;;;;20.40;51.70;;;;;;5076525;28;19924;-74
2023/10/16 07:25:37;;;;;;;;;;;20.30;52.20;;;;;;5094191;27;19967;-72
2023/10/16 07:28:08;;;;;;;;;;;20.10;52.60;;;;;;5077731;28;19920;-71
2023/10/16 07:30:35;;;;;;;;;;;19.90;53.20;;;;;;5099200;28;19920;-71
2023/10/16 07:33:01;;;;;;;;;;;19.70;53.60;;;;;;5077547;28;19920;-71
2023/10/16 07:35:27;;;;;;;;;;;19.50;54.10;;;;;;5072952;28;19943;-72
2023/10/16 07:37:53;;;;;;;;;;;19.40;54.70;;;;;;5074058;28;19980;-72
2023/10/16 07:40:20;;;;;;;;;;;19.20;55.10;;;;;;5074788;28;19924;-71
2023/10/16 07:42:46;;;;;;;;;;;19.00;55.60;;;;;;5077135;28;20018;-71
2023/10/16 07:45:12;;;;;;;;;;;18.90;55.90;;;;;;5073657;28;20586;-71
2023/10/16 07:47:37;;;;;;;;;;;18.70;56.30;;;;;;5094539;27;20229;-71
2023/10/16 07:50:04;;;;;;;;;;;18.60;56.70;;;;;;5076855;28;19927;-73
2023/10/16 07:52:30;;;;;;;;;;;18.50;57.00;;;;;;5092052;27;19924;-73
2023/10/16 07:54:55;;;;;;;;;;;18.40;57.50;;;;;;5078634;28;19970;-72
2023/10/16 07:57:23;;;;;;;;;;;18.30;57.80;;;;;;5090193;27;19963;-72
2023/10/16 07:59:54;;;;;;;;;;;18.30;58.00;;;;;;5074705;28;19924;-74
2023/10/16 08:02:20;;;;;;;;;;;18.10;58.10;;;;;;5077507;28;19927;-74
2023/10/16 08:04:51;;;;;;;;;;;18.00;58.40;;;;;;5072525;27;19970;-71
2023/10/16 08:07:18;;;;;;;;;;;18.00;58.60;;;;;;5070087;28;19928;-71
2023/10/16 08:12:40;;;;;;;;;;;18.30;58.60;;;;;;5083848;27;19924;-74
2023/10/16 08:15:14;;;;;;;;;;;18.50;58.40;;;;;;5071757;28;19959;-70
2023/10/16 08:17:44;;;;;;;;;;;18.70;58.10;;;;;;5078568;28;20412;-70
2023/10/16 08:20:17;;;;;;;;;;;18.80;57.90;;;;;;5075923;28;19924;-70
2023/10/16 08:22:44;;;;;;;;;;;19.00;57.70;;;;;;5075059;28;19931;-67
2023/10/16 08:25:20;;;;;;;;;;;19.10;57.50;;;;;;5103839;27;19940;-68
2023/10/16 08:27:49;;;;;;;;;;;19.10;57.40;;;;;;5080111;28;19932;-68
2023/10/16 08:30:18;;;;;;;;;;;19.10;57.30;;;;;;5074222;28;20647;-71
2023/10/16 08:35:32;;;;;;;;;;;19.10;57.50;;;;;;5062449;28;19927;-69
2023/10/16 08:37:57;;;;;;;;;;;19.00;57.60;;;;;;5065950;28;19921;-69
2023/10/16 08:40:35;;;;;;;;;;;18.90;57.80;;;;;;5062766;28;20586;-71
2023/10/16 08:43:01;;;;;;;;;;;18.80;57.90;;;;;;5063470;28;20196;-71
2023/10/16 08:45:28;;;;;;;;;;;18.80;58.30;;;;;;5064663;28;20173;-72
2023/10/16 08:47:55;;;;;;;;;;;18.70;58.50;;;;;;5060796;28;20350;-71
2023/10/16 08:50:20;;;;;;;;;;;18.60;58.90;;;;;;5062546;28;20332;-73
2023/10/16 08:52:58;;;;;;;;;;;18.50;59.20;;;;;;5058397;28;19928;-77
2023/10/16 08:55:26;;;;;;;;;;;18.40;59.40;;;;;;5058845;28;20441;-72
2023/10/16 08:57:51;;;;;;;;;;;18.30;59.70;;;;;;5075487;28;19932;-71
2023/10/16 09:00:30;;;;;;;;;;;18.30;60.00;;;;;;5056195;28;20662;-74
2023/10/16 09:02:56;;;;;;;;;;;18.20;60.20;;;;;;5076610;28;19934;-69
2023/10/16 09:05:22;;;;;;;;;;;18.10;60.40;;;;;;5076030;28;20318;-71
2023/10/16 09:07:48;;;;;;;;;;;18.10;60.70;;;;;;5059800;28;19950;-70
2023/10/16 09:10:15;;;;;;;;;;;18.10;61.20;;;;;;5065726;28;20388;-75
2023/10/16 09:12:45;;;;;;;;;;;18.10;61.40;;;;;;5063922;28;20875;-73
2023/10/16 09:15:15;;;;;;;;;;;18.10;62.40;;;;;;5056464;28;19931;-70
2023/10/16 09:17:40;;;;;;;;;;;18.10;61.60;;;;;;5060544;28;19950;-72
2023/10/16 09:20:13;;;;;;;;;;;18.10;61.70;;;;;;5069625;28;19925;-70
2023/10/16 09:22:44;;;;;;;;;;;18.20;62.00;;;;;;5067412;28;19925;-68
2023/10/16 09:25:11;;;;;;;;;;;18.20;61.90;;;;;;5064954;28;19934;-68
2023/10/16 09:27:41;;;;;;;;;;;18.30;61.90;;;;;;5078833;28;19932;-70
2023/10/16 09:30:14;;;;;;;;;;;18.30;61.70;;;;;;5065140;28;20450;-69
2023/10/16 09:32:40;;;;;;;;;;;18.30;61.50;;;;;;5062832;28;19932;-68
2023/10/16 09:35:13;;;;;;;;;;;18.30;61.50;;;;;;5061068;28;19924;-68
2023/10/16 09:37:40;;;;;;;;;;;18.30;61.40;;;;;;5063028;28;20510;-70
2023/10/16 09:40:18;;;;;;;;;;;18.30;61.40;;;;;;5065199;28;19956;-71
2023/10/16 09:42:45;;;;;;;;;;;18.30;61.50;;;;;;5072890;28;20423;-71
2023/10/16 09:45:18;;;;;;;;;;;18.30;61.60;;;;;;5056007;28;20066;-72
2023/10/16 09:47:51;;;;;;;;;;;18.20;61.70;;;;;;5062832;28;20128;-72
2023/10/16 09:50:18;;;;;;;;;;;18.20;61.70;;;;;;5065796;28;20148;-71
2023/10/16 09:52:46;;;;;;;;;;;18.20;61.90;;;;;;5048799;28;19925;-70
2023/10/16 09:55:12;;;;;;;;;;;18.10;61.90;;;;;;5047645;28;19928;-69
2023/10/16 09:57:44;;;;;;;;;;;18.10;62.00;;;;;;5051437;28;19928;-73
2023/10/16 10:00:46;;;;;;;;;;;18.00;62.20;;;;;;5052664;28;20002;-69
2023/10/16 10:02:59;;;;;;;;;;;18.00;62.40;;;;;;5050571;28;20349;-68
2023/10/16 10:05:47;;;;;;;;;;;18.00;62.60;;;;;;5045681;28;19928;-71
2023/10/16 10:08:16;;;;;;;;;;;18.10;62.60;;;;;;5050954;28;20011;-69
2023/10/16 10:13:33;;;;;;;;;;;18.10;62.60;;;;;;5062670;28;19935;-69
2023/10/16 10:16:06;;;;;;;;;;;18.30;62.70;;;;;;5051865;28;19925;-69
2023/10/16 10:18:32;;;;;;;;;;;18.70;62.10;;;;;;5049179;28;20327;-70
2023/10/16 10:20:59;;;;;;;;;;;19.10;61.00;;;;;;5053784;28;19932;-69
2023/10/16 10:23:25;;;;;;;;;;;19.60;59.90;;;;;;5061500;28;19925;-69
2023/10/16 10:25:53;;;;;;;;;;;20.10;58.80;;;;;;5048859;28;19943;-69
2023/10/16 10:28:22;;;;;;;;;;;20.40;57.70;;;;;;5055974;28;19936;-69
2023/10/16 10:30:49;;;;;;;;;;;20.80;57.00;;;;;;5057826;28;19920;-69
2023/10/16 10:33:36;;;;;;;;;;;21.00;56.20;;;;;;5054365;28;19943;-69
2023/10/16 10:36:22;;;;;;;;;;;21.30;55.70;;;;;;5074790;28;20213;-71
2023/10/16 10:38:47;;;;;;;;;;;21.40;55.30;;;;;;5056581;28;19927;-71
2023/10/16 10:41:13;;;;;;;;;;;21.40;55.00;;;;;;5071183;28;19924;-70
2023/10/16 10:49:07;;;;;;;;;;;21.50;54.70;;;;;;5103398;27;20399;-71
2023/10/16 10:51:35;;;;;;;;;;;21.60;54.60;;;;;;5091658;28;19930;-68
2023/10/16 10:54:06;;;;;;;;;;;21.70;54.40;;;;;;5087741;28;20311;-70
2023/10/16 10:56:48;;;;;;;;;;;21.80;54.30;;;;;;5078933;28;20013;-71
2023/10/16 10:59:38;;;;;;;;;;;22.00;54.10;;;;;;5086955;28;19945;-71
2023/10/16 11:02:09;;;;;;;;;;;22.10;53.70;;;;;;5087250;28;20406;-67
2023/10/16 11:04:35;;;;;;;;;;;22.20;53.60;;;;;;5089178;28;20230;-67
2023/10/16 11:07:11;;;;;;;;;;;22.20;53.60;;;;;;5087561;28;20389;-73
2023/10/16 11:09:38;;;;;;;;;;;22.30;53.50;;;;;;5088725;28;19958;-72
2023/10/16 11:12:07;;;;;;;;;;;22.20;53.40;;;;;;5084481;28;19933;-74
2023/10/16 11:14:35;;;;;;;;;;;22.30;53.50;;;;;;5089633;28;19954;-71
2023/10/16 11:17:00;;;;;;;;;;;22.30;53.50;;;;;;5083389;28;19930;-71
2023/10/16 11:19:29;;;;;;;;;;;22.30;53.30;;;;;;5090426;28;20412;-75
2023/10/16 11:21:56;;;;;;;;;;;22.40;53.30;;;;;;5090993;28;19935;-70
2023/10/16 11:24:24;;;;;;;;;;;22.50;53.30;;;;;;5084847;28;19963;-70
2023/10/16 11:26:51;;;;;;;;;;;22.60;53.10;;;;;;5087464;28;19973;-70
2023/10/16 11:29:19;;;;;;;;;;;22.60;53.10;;;;;;5085971;28;19924;-73
2023/10/16 11:31:44;;;;;;;;;;;22.70;53.10;;;;;;5082535;28;19920;-76
2023/10/16 11:34:13;;;;;;;;;;;22.70;52.80;;;;;;5092513;28;20325;-76
2023/10/16 11:36:40;;;;;;;;;;;22.70;52.60;;;;;;5088518;28;19935;-77
2023/10/16 11:39:07;;;;;;;;;;;22.60;52.80;;;;;;5087939;28;19987;-75
2023/10/16 11:41:33;;;;;;;;;;;22.60;52.80;;;;;;5086612;28;19920;-74
2023/10/16 11:44:04;;;;;;;;;;;22.50;52.60;;;;;;5084790;28;20145;-75
2023/10/16 11:46:33;;;;;;;;;;;22.50;52.80;;;;;;5085983;28;20239;-76
2023/10/16 11:52:08;;;;;;;;;;;22.50;53.50;;;;;;5071007;27;20106;-72
2023/10/16 11:54:34;;;;;;;;;;;22.60;52.80;;;;;;5049759;28;20354;-73
2023/10/16 11:57:00;;;;;;;;;;;22.50;52.60;;;;;;5085225;28;20332;-67
2023/10/16 11:59:26;;;;;;;;;;;22.50;52.80;;;;;;5048513;28;19924;-73
2023/10/16 12:01:52;;;;;;;;;;;22.60;52.60;;;;;;5052928;28;19920;-71
2023/10/16 12:04:19;;;;;;;;;;;22.60;52.50;;;;;;5048220;28;20388;-73
2023/10/16 12:06:46;;;;;;;;;;;22.70;52.30;;;;;;5049720;28;19924;-69
2023/10/16 12:09:19;;;;;;;;;;;22.70;52.10;;;;;;5049164;28;19925;-73
2023/10/16 12:11:45;;;;;;;;;;;22.70;52.10;;;;;;5051487;28;20591;-72
2023/10/16 12:14:13;;;;;;;;;;;22.70;52.10;;;;;;5047818;28;20476;-74
2023/10/16 12:16:41;;;;;;;;;;;22.70;52.20;;;;;;5081590;28;19924;-69
2023/10/16 12:19:07;;;;;;;;;;;22.80;52.20;;;;;;5037708;28;19929;-70
2023/10/16 12:21:32;;;;;;;;;;;23.00;52.10;;;;;;5051634;28;19932;-70
2023/10/16 12:23:58;;;;;;;;;;;23.10;51.80;;;;;;5048518;28;19928;-72
2023/10/16 12:26:24;;;;;;;;;;;23.10;51.50;;;;;;5050090;28;20651;-72
2023/10/16 12:28:50;;;;;;;;;;;23.20;51.30;;;;;;5044701;28;19932;-71
2023/10/16 12:31:15;;;;;;;;;;;23.10;51.20;;;;;;5045523;28;20078;-72
2023/10/16 12:33:41;;;;;;;;;;;23.10;51.10;;;;;;5038374;28;20434;-72
2023/10/16 12:36:08;;;;;;;;;;;23.20;51.30;;;;;;5041646;28;20011;-72
2023/10/16 12:38:33;;;;;;;;;;;23.20;51.40;;;;;;5046064;28;20308;-73
2023/10/16 12:41:00;;;;;;;;;;;23.30;51.20;;;;;;5047496;28;19939;-73
2023/10/16 12:43:27;;;;;;;;;;;23.30;51.30;;;;;;5080053;28;20323;-71
2023/10/16 12:45:54;;;;;;;;;;;23.30;51.20;;;;;;5076494;28;20066;-71
2023/10/16 12:48:21;;;;;;;;;;;23.40;51.20;;;;;;5044270;28;20103;-70
2023/10/16 12:50:47;;;;;;;;;;;23.30;51.10;;;;;;5084548;28;19932;-71
2023/10/16 12:53:14;;;;;;;;;;;23.30;51.40;;;;;;5041558;28;19947;-71
2023/10/16 12:55:41;;;;;;;;;;;23.20;51.50;;;;;;5079354;28;19932;-71
2023/10/16 12:58:11;;;;;;;;;;;23.20;51.60;;;;;;5049732;28;20012;-72
2023/10/16 13:00:39;;;;;;;;;;;23.30;51.80;;;;;;5034498;28;19925;-71
2023/10/16 13:03:13;;;;;;;;;;;23.40;51.60;;;;;;5037190;28;19921;-69
2023/10/16 13:05:39;;;;;;;;;;;23.40;51.50;;;;;;5041188;28;19960;-67
2023/10/16 13:08:07;;;;;;;;;;;23.50;51.60;;;;;;5074902;28;19964;-72
2023/10/16 13:10:32;;;;;;;;;;;23.50;51.30;;;;;;5075025;28;19960;-71
2023/10/16 13:12:59;;;;;;;;;;;23.50;51.60;;;;;;5044878;28;20192;-69
2023/10/16 13:15:25;;;;;;;;;;;23.50;51.70;;;;;;5080986;28;19935;-71
2023/10/16 13:17:52;;;;;;;;;;;23.50;51.60;;;;;;5045043;28;19925;-70
2023/10/16 13:20:17;;;;;;;;;;;23.50;51.50;;;;;;5048546;28;19943;-71
2023/10/16 13:22:43;;;;;;;;;;;23.50;51.50;;;;;;5082535;28;19924;-70
2023/10/16 13:25:12;;;;;;;;;;;23.40;51.40;;;;;;5047464;28;19924;-70
2023/10/16 13:27:38;;;;;;;;;;;23.50;51.40;;;;;;5083252;28;19921;-70
2023/10/16 13:30:05;;;;;;;;;;;23.40;51.30;;;;;;5071879;28;20497;-68
2023/10/16 13:32:31;;;;;;;;;;;23.40;51.10;;;;;;5052967;28;20175;-69
2023/10/16 13:35:00;;;;;;;;;;;23.30;49.40;;;;;;5053274;28;20007;-71
2023/10/16 13:37:25;;;;;;;;;;;23.10;48.30;;;;;;5052141;28;19948;-69
2023/10/16 13:39:52;;;;;;;;;;;22.90;49.60;;;;;;5055056;28;19990;-69
2023/10/16 13:42:20;;;;;;;;;;;22.80;49.70;;;;;;5068133;28;20061;-70
2023/10/16 13:44:46;;;;;;;;;;;22.80;49.60;;;;;;5046148;28;20388;-69
2023/10/16 13:47:13;;;;;;;;;;;22.80;49.30;;;;;;5051941;28;19921;-70
2023/10/16 13:49:40;;;;;;;;;;;22.70;49.30;;;;;;5059006;28;19924;-70
2023/10/16 13:52:07;;;;;;;;;;;22.80;49.50;;;;;;5080463;28;20311;-70
2023/10/16 13:54:34;;;;;;;;;;;22.80;49.50;;;;;;5046513;28;20347;-70
2023/10/16 13:57:01;;;;;;;;;;;22.80;49.50;;;;;;5045826;28;20387;-70
2023/10/16 13:59:27;;;;;;;;;;;22.80;49.40;;;;;;5050291;28;19966;-72
2023/10/16 14:01:53;;;;;;;;;;;22.80;49.00;;;;;;5044850;28;19928;-72
2023/10/16 14:04:21;;;;;;;;;;;22.80;49.00;;;;;;5049535;28;19932;-72
2023/10/16 14:06:54;;;;;;;;;;;22.70;48.90;;;;;;5045552;28;20023;-72
2023/10/16 14:09:20;;;;;;;;;;;22.60;49.40;;;;;;5045577;28;19920;-72
2023/10/16 14:11:47;;;;;;;;;;;22.40;49.90;;;;;;5049616;28;19978;-72
2023/10/16 14:14:18;;;;;;;;;;;22.20;50.00;;;;;;5048253;28;19926;-71
2023/10/16 14:16:46;;;;;;;;;;;22.10;50.00;;;;;;5045969;28;20213;-72
2023/10/16 14:19:13;;;;;;;;;;;22.00;50.30;;;;;;5046199;28;20374;-72
2023/10/16 14:21:40;;;;;;;;;;;22.00;50.40;;;;;;5048175;28;19955;-72
2023/10/16 14:24:07;;;;;;;;;;;21.90;50.50;;;;;;5048799;28;20156;-71
2023/10/16 14:26:34;;;;;;;;;;;21.80;50.70;;;;;;5047772;28;20026;-70
2023/10/16 14:28:59;;;;;;;;;;;21.80;50.90;;;;;;5061037;28;19928;-72
2023/10/16 14:31:28;;;;;;;;;;;21.80;51.40;;;;;;5044093;28;19933;-69
2023/10/16 14:33:53;;;;;;;;;;;21.60;51.60;;;;;;5049109;28;19935;-73
2023/10/16 14:36:19;;;;;;;;;;;21.50;51.80;;;;;;5051500;28;19928;-74
2023/10/16 14:38:45;;;;;;;;;;;21.40;52.10;;;;;;5051825;28;20153;-73
2023/10/16 14:41:19;;;;;;;;;;;21.30;52.00;;;;;;5082742;28;19930;-70
2023/10/16 14:43:45;;;;;;;;;;;21.20;52.50;;;;;;5057626;28;19921;-71
2023/10/16 14:46:11;;;;;;;;;;;21.10;52.80;;;;;;5064172;28;20368;-71
2023/10/16 14:48:37;;;;;;;;;;;21.00;53.20;;;;;;5050032;28;20066;-71
2023/10/16 14:51:04;;;;;;;;;;;20.90;53.30;;;;;;5046039;28;19936;-73
2023/10/16 14:53:30;;;;;;;;;;;20.90;53.60;;;;;;5056334;28;19921;-73
2023/10/16 14:55:56;;;;;;;;;;;20.80;53.70;;;;;;5049602;28;19921;-73
2023/10/16 14:58:23;;;;;;;;;;;20.70;53.80;;;;;;5046118;28;19924;-73
2023/10/16 15:00:50;;;;;;;;;;;20.70;54.00;;;;;;5060281;28;20009;-73
2023/10/16 15:03:16;;;;;;;;;;;20.60;54.10;;;;;;5071968;28;20447;-73
2023/10/16 15:05:43;;;;;;;;;;;20.50;54.20;;;;;;5045358;28;19921;-70
2023/10/16 15:08:13;;;;;;;;;;;20.50;54.40;;;;;;5046367;28;19929;-70
2023/10/16 15:13:21;;;;;;;;;;;20.30;54.70;;;;;;5106167;27;19926;-70
2023/10/16 15:15:47;;;;;;;;;;;20.30;54.80;;;;;;5107009;28;19920;-70
2023/10/16 15:18:13;;;;;;;;;;;20.30;55.00;;;;;;5105227;28;19969;-70
2023/10/16 15:20:39;;;;;;;;;;;20.20;55.10;;;;;;5105504;28;19923;-70
2023/10/16 15:23:11;;;;;;;;;;;20.20;55.20;;;;;;5106410;28;19931;-70
2023/10/16 15:25:37;;;;;;;;;;;20.10;55.30;;;;;;5107354;28;19924;-70
2023/10/16 15:28:03;;;;;;;;;;;20.00;55.40;;;;;;5107514;28;19920;-70
2023/10/16 15:30:30;;;;;;;;;;;20.00;55.60;;;;;;5107023;28;19924;-70
2023/10/16 15:32:55;;;;;;;;;;;19.90;55.60;;;;;;5105389;28;19928;-70
2023/10/16 15:35:23;;;;;;;;;;;19.90;55.80;;;;;;5106862;28;19924;-70
2023/10/16 15:37:48;;;;;;;;;;;19.90;55.90;;;;;;5106175;28;19920;-70
2023/10/16 15:40:17;;;;;;;;;;;19.80;56.10;;;;;;5106785;28;20367;-70
2023/10/16 15:42:44;;;;;;;;;;;19.70;56.10;;;;;;5106145;28;20287;-70
2023/10/16 15:45:11;;;;;;;;;;;19.70;56.20;;;;;;5106284;28;20379;-70
2023/10/16 15:47:36;;;;;;;;;;;19.70;56.30;;;;;;5107537;28;19920;-70
2023/10/16 15:50:02;;;;;;;;;;;19.70;56.40;;;;;;5108271;28;19935;-70
2023/10/16 15:52:27;;;;;;;;;;;19.60;56.50;;;;;;5106096;28;19924;-70
2023/10/16 15:54:53;;;;;;;;;;;19.50;56.50;;;;;;5107346;28;19927;-70
2023/10/16 15:57:22;;;;;;;;;;;19.50;56.70;;;;;;5099241;28;19970;-72
2023/10/16 15:59:49;;;;;;;;;;;19.50;56.80;;;;;;5104031;28;19934;-70
2023/10/16 16:02:16;;;;;;;;;;;19.50;56.90;;;;;;5105039;28;19920;-71
2023/10/16 16:04:44;;;;;;;;;;;19.40;57.00;;;;;;5106166;28;20165;-69
2023/10/16 16:07:10;;;;;;;;;;;19.40;57.10;;;;;;5105470;28;19920;-69
2023/10/16 16:09:35;;;;;;;;;;;19.30;57.20;;;;;;5103516;28;20345;-70
2023/10/16 16:12:01;;;;;;;;;;;19.30;57.30;;;;;;5104996;28;19928;-70
2023/10/16 16:14:27;;;;;;;;;;;19.30;57.40;;;;;;5105268;28;19927;-70
2023/10/16 16:16:53;;;;;;;;;;;19.30;57.50;;;;;;5103024;28;19946;-70
2023/10/16 16:19:19;;;;;;;;;;;19.30;57.60;;;;;;5101454;28;20006;-69